Friedrichshafen Airport EDNY

Flugplatz Daten

Name: Friedrichshafen Airport

Ident: EDNY

Lat: 47,67129898

Long: 9,511489868

Platzhöhe: 1367 ft

IataCode: FDH

City: Friedrichshafen

Metar

2022/08/15 19:20
EDNY 151920Z 12004KT 060V200 CAVOK 17/15 Q1011

Taf

2022/08/15 18:27
TAF EDNY 151700Z 1518/1618 24012KT 9999 SCT020
BECMG 1518/1520 VRB03KT
BECMG 1610/1612 23005KT
Gewünschte Webcam nicht vorhanden? Dann fügen Sie eine hinzu. Sie wird dann so schnell wie möglich freigeschaltet
Url: Title: